x

Ilm2 - 5 Miles Se Of Wrightsville Beach, Nc (41038) Weather Station

9:53 - Thu 11th Feb 2016 All times are EST. -5 hours from GMT.

  • Wind
    2mph, 4mph gusts
  • Sea Temp 50°f
  • Air Temp 44°f
  • Sea Pressure 1025.9mb
  • Ilm2 - 5 Miles Se Of Wrightsville Beach, Nc
  • Ilm2 - 5 Miles Se Of Wrightsville Beach, Nc

More Historic Weather Station data

Upgrade to MSW Pro to gain access to the past 30 days of data for over 8000 Wavebouys and Weather Stations around the globe.

Join Pro

Comparision Forecast

View Surf forecast
   
jeu. 02/11 9:53 2 4 mph 1025.9mb 50f 44f
9:38 2 4 mph 1025.8mb 50f 45f
9:23 2 4 mph 1025.8mb 50f 45f
9:08 2 4 mph 1025.7mb 50f 45f
8:53 2 7 mph 1025.5mb 50f 45f
8:38 2 7 mph 1025.3mb 50f 45f
8:23 4 9 mph 1025.4mb 50f 45f
8:08 4 9 mph 1025.3mb 50f 45f
7:53 4 9 mph 1025.1mb 50f 45f
7:38 7 13 mph 1024.8mb 50f 45f
7:23 9 13 mph 1024.7mb 50f 45f
7:08 9 13 mph 1024.3mb 50f 45f
6:08 11 16 mph 1023.5mb 50f 46f
5:53 11 16 mph 1023.1mb 50f 46f
5:38 11 16 mph 1022.8mb 50f 46f
5:23 9 16 mph 1022.7mb 50f 46f
5:08 7 13 mph 1022.3mb 50f 46f
4:53 7 11 mph 1022.2mb 50f 46f
4:38 9 11 mph 1022mb 50f 45f
4:23 7 9 mph 1022mb 50f 46f
4:08 9 13 mph 1022mb 50f 45f
3:53 11 18 mph 1021.8mb 50f 45f
3:38 9 16 mph 1021.8mb 50f 44f
3:23 11 16 mph 1021.6mb 50f 44f
3:08 11 18 mph 1021.8mb 50f 44f
2:08 13 22 mph 1022mb 51f 42f
1:53 11 16 mph 1022.1mb 51f 42f
1:38 7 13 mph 1022.1mb 51f 41f
1:23 7 11 mph 1022.4mb 50f 40f
1:08 4 9 mph 1022.4mb 50f 40f
12:53 9 13 mph 1022.8mb 50f 39f
12:38 7 11 mph 1023mb 50f 39f
12:23 7 11 mph 1023.4mb 50f 38f
12:08 9 16 mph 1023.7mb 50f 38f
11:53 9 13 mph 1024mb 51f 37f
11:38 11 16 mph 1024mb 51f 37f
11:23 9 16 mph 1024.2mb 51f 36f
11:08 9 13 mph 1024.3mb 51f 35f
9:08 9 13 mph 1024.2mb 51f 32f
8:53 11 18 mph 1024.1mb 50f 33f
8:38 13 20 mph 1023.9mb 51f 33f
8:23 16 22 mph 1023.2mb 51f 33f
8:08 16 20 mph 1023.1mb 51f 33f
7:53 18 22 mph 1022.8mb 51f 33f
7:38 16 22 mph 1022.9mb 50f 33f
7:23 18 25 mph 1022.6mb 51f 33f
7:08 18 22 mph 1022.5mb 51f 33f
6:53 18 25 mph 1022.3mb 51f 33f
6:38 18 25 mph 1022.1mb 50f 33f
6:23 20 25 mph 1021.8mb 50f 33f
5:08 18 25 mph 1021.3mb 50f 34f
4:53 18 25 mph 1021.1mb 50f 34f
4:38 18 25 mph 1021.1mb 50f 34f
4:23 18 22 mph 1021.2mb 50f 34f
4:08 18 25 mph 1020.9mb 50f 34f
3:53 18 25 mph 1020.4mb 50f 34f
3:38 18 22 mph 1020.2mb 50f 35f
3:23 18 22 mph 1019.9mb 51f 35f
3:08 18 22 mph 1020mb 50f 35f
2:53 18 25 mph 1019.4mb 50f 35f
2:38 16 22 mph 1019.7mb 50f 35f
2:23 18 22 mph 1019.8mb 50f 35f
2:08 18 22 mph 1019.6mb 50f 36f
1:53 20 27 mph 1019.5mb 50f 37f
1:38 20 29 mph 1019.1mb 51f 37f
1:23 20 29 mph 1019.4mb 51f 37f
1:08 22 31 mph 1019.4mb 51f 37f
12:53 20 27 mph 1019.5mb 51f 38f
12:38 22 31 mph 1019.3mb 51f 38f
12:23 22 29 mph 1019.3mb 51f 38f
12:08 22 29 mph 1019.1mb 51f 38f
mer. 02/10 11:53 22 34 mph 1019.1mb 51f 38f
11:38 25 34 mph 1018.8mb 51f 38f
11:23 25 31 mph 1018.7mb 51f 38f
11:08 25 34 mph 1018.9mb 51f 38f
10:53 25 34 mph 1018.4mb 51f 38f
10:38 25 34 mph 1018.3mb 51f 38f
10:23 27 36 mph 1018mb 51f 38f
10:08 27 36 mph 1018.1mb 51f 39f
9:53 27 36 mph 1017.8mb 51f 39f
9:08 20 27 mph 1017.2mb 51f 39f
8:53 20 27 mph 1017mb 51f 39f
8:38 20 25 mph 1017mb 51f 39f
8:23 20 25 mph 1016.8mb 51f 39f
8:08 18 25 mph 1016.9mb 51f 39f
7:53 20 25 mph 1016.6mb 51f 39f
7:38 18 25 mph 1016.5mb 51f 39f
7:23 18 27 mph 1016.3mb 51f 39f
7:08 20 27 mph 1016.2mb 51f 39f
6:53 22 31 mph 1016.2mb 51f 39f
6:38 25 34 mph 1015.7mb 51f 40f
6:23 27 38 mph 1015.4mb 51f 40f
6:08 27 36 mph 1015.4mb 51f 40f
5:53 25 36 mph 1015.2mb 51f 40f
5:38 25 34 mph 1014.8mb 51f 41f
5:23 25 31 mph 1014.3mb 51f 41f
5:08 22 29 mph 1014.3mb 51f 41f
4:53 20 27 mph 1013.8mb 51f 42f
4:38 20 29 mph 1013.4mb 51f 41f
4:23 22 29 mph 1013.2mb 51f 41f
4:08 22 29 mph 1013.2mb 51f 42f
3:53 22 29 mph 1013mb 51f 42f
3:38 20 27 mph 1012.7mb 51f 41f
3:23 18 25 mph 1012.4mb 51f 41f
3:08 20 27 mph 1012.2mb 51f 42f
2:53 16 25 mph 1012.2mb 51f 42f
2:38 18 27 mph 1012.2mb 51f 42f
2:23 18 25 mph 1012.1mb 51f 42f
2:08 16 25 mph 1012.4mb 51f 41f
1:53 16 25 mph 1012.4mb 51f 41f
1:38 16 25 mph 1012.6mb 51f 41f
1:23 13 20 mph 1012.6mb 51f 40f
1:08 16 22 mph 1012.8mb 51f 40f
12:53 13 20 mph 1013.2mb 51f 40f
12:38 13 18 mph 1013.6mb 51f 39f
12:23 11 20 mph 1013.7mb 51f 39f
12:08 13 20 mph 1013.9mb 51f 39f
11:53 13 20 mph 1014mb 51f 39f
11:38 16 20 mph 1014.2mb 51f 39f
11:23 11 20 mph 1014.3mb 51f 39f
11:08 16 25 mph 1014.6mb 51f 38f
10:53 16 20 mph 1014.8mb 51f 38f
10:38 18 25 mph 1014.9mb 51f 38f
10:23 16 22 mph 1015mb 51f 38f
10:08 13 22 mph 1015.2mb 51f 37f
9:53 16 22 mph 1015.1mb 51f 37f
9:38 16 22 mph 1015.2mb 51f 37f
9:23 13 20 mph 1015.1mb 51f 37f
9:08 16 25 mph 1015.2mb 51f 37f
8:53 16 22 mph 1015.1mb 51f 37f
8:38 16 25 mph 1014.8mb 51f 36f
8:23 16 22 mph 1014.7mb 51f 37f
8:08 18 25 mph 1014.1mb 51f 36f
7:53 18 22 mph 1014.1mb 51f 37f
7:38 20 27 mph 1014.1mb 51f 37f
7:08 18 25 mph 1013.9mb 51f 37f
6:53 20 27 mph 1013.7mb 51f 37f
6:38 18 27 mph 1013.5mb 51f 37f
6:23 18 25 mph 1013.6mb 51f 37f
6:08 20 27 mph 1013.2mb 51f 37f
5:53 20 27 mph 1013.2mb 51f 37f
5:38 18 25 mph 1013.1mb 51f 37f
5:23 18 25 mph 1013mb 51f 37f
5:08 18 25 mph 1012.8mb 51f 38f
4:53 18 25 mph 1012.7mb 51f 38f
4:38 18 27 mph 1012.2mb 51f 38f
4:23 20 29 mph 1012.2mb 51f 38f
4:08 20 27 mph 1011.9mb 51f 39f
3:53 20 29 mph 1011.8mb 51f 38f
3:38 20 31 mph 1011.6mb 51f 39f
3:23 20 29 mph 1011.5mb 51f 39f
3:08 20 27 mph 1011.7mb 51f 39f
2:53 20 27 mph 1011.5mb 51f 39f
2:38 18 27 mph 1011.5mb 51f 39f
2:23 18 25 mph 1011.4mb 51f 40f
2:08 20 25 mph 1011.2mb 51f 40f
1:53 20 29 mph 1011.4mb 51f 40f
1:38 22 29 mph 1011.3mb 51f 40f
1:23 22 31 mph 1011.2mb 51f 40f
1:08 22 29 mph 1011.1mb 51f 40f
12:53 22 34 mph 1011.2mb 51f 41f
12:38 22 31 mph 1011.1mb 51f 41f
12:23 22 29 mph 1010.9mb 51f 41f
12:08 25 31 mph 1011.2mb 51f 41f
mar. 02/09 11:53 25 34 mph 1011mb 51f 41f
11:08 25 34 mph 1010.9mb 51f 42f
10:53 25 34 mph 1010.7mb 51f 43f
10:38 22 31 mph 1010.8mb 51f 43f
10:23 25 31 mph 1010.9mb 51f 43f
10:08 22 29 mph 1010.6mb 51f 43f
9:53 22 31 mph 1010.5mb 51f 43f
9:38 22 31 mph 1010.4mb 51f 43f
9:23 20 29 mph 1010.4mb 51f 43f
9:08 20 27 mph 1010.2mb 51f 43f
8:53 20 29 mph 1010.3mb 51f 43f
8:38 22 34 mph 1010mb 51f 44f
8:23 25 34 mph 1009.8mb 51f 44f
8:08 25 34 mph 1009.7mb 51f 44f
7:53 25 31 mph 1009.5mb 51f 44f
7:38 25 31 mph 1009.4mb 52f 44f
7:23 25 31 mph 1009.7mb 52f 44f
7:08 25 38 mph 1009.4mb 52f 44f
6:53 22 31 mph 1009.3mb 52f 44f
6:38 25 34 mph 1009mb 51f 44f
6:23 25 36 mph 1008.8mb 52f 45f
6:08 27 34 mph 1008.3mb 52f 45f
5:53 25 34 mph 1007.7mb 52f 45f
5:38 25 31 mph 1007.2mb 52f 45f
5:23 25 34 mph 1007.1mb 52f 46f
5:08 22 29 mph 1006.6mb 52f 46f
4:53 22 31 mph 1006.4mb 51f 46f
4:38 22 31 mph 1006.1mb 51f 46f
4:23 22 29 mph 1005.9mb 51f 46f
3:53 20 29 mph 1005.7mb 51f 47f
3:08 22 31 mph 1005.1mb 51f 47f
2:53 22 31 mph 1005.2mb 51f 47f
2:38 22 34 mph 1005.1mb 51f 46f
2:23 20 29 mph 1005.1mb 51f 46f
2:08 18 29 mph 1005.2mb 51f 46f
1:53 20 27 mph 1005.1mb 51f 46f
1:38 20 29 mph 1005.1mb 51f 45f
1:23 22 29 mph 1004.9mb 51f 46f
1:08 20 27 mph 1004.9mb 51f 45f
12:53 20 27 mph 1005mb 51f 45f
12:38 22 31 mph 1005.2mb 51f 45f
12:23 22 29 mph 1005.7mb 51f 45f
12:08 22 29 mph 1005.9mb 51f 45f
11:53 22 29 mph 1006.4mb 51f 44f
11:38 22 29 mph 1006.6mb 51f 45f
11:23 20 29 mph 1006.8mb 51f 44f
11:08 20 25 mph 1007.1mb 51f 44f
10:53 20 27 mph 1007mb 51f 44f
10:38 20 27 mph 1007.1mb 51f 44f
10:23 20 29 mph 1007.2mb 51f 44f
10:08 20 29 mph 1007mb 51f 44f
9:53 22 29 mph 1006.7mb 51f 44f
9:38 22 29 mph 1006.7mb 51f 44f
9:23 22 29 mph 1006.2mb 51f 44f
8:08 20 27 mph 1005.8mb 51f 42f
7:53 22 29 mph 1005.4mb 51f 43f
7:38 22 29 mph 1005.2mb 51f 42f
7:23 22 29 mph 1004.9mb 51f 42f
7:08 22 31 mph 1004.8mb 51f 42f
6:53 20 27 mph 1004.5mb 51f 43f
6:38 22 29 mph 1004.6mb 51f 42f
6:23 22 29 mph 1004.8mb 51f 43f
6:08 22 29 mph 1004.2mb 51f 43f
5:53 22 29 mph 1004.1mb 51f 43f
5:38 22 29 mph 1003.8mb 51f 44f
5:23 22 29 mph 1003.5mb 51f 44f
5:08 22 29 mph 1003.5mb 51f 44f
4:53 20 29 mph 1003.5mb 51f 45f
4:38 20 25 mph 1003.3mb 51f 45f
4:23 20 27 mph 1003mb 51f 46f
4:08 18 27 mph 1003mb 51f 46f
3:53 18 25 mph 1002.9mb 51f 46f
3:38 18 25 mph 1003.1mb 51f 47f
3:23 20 25 mph 1003.2mb 51f 47f
3:08 20 27 mph 1003.2mb 51f 48f
2:53 18 25 mph 1003.4mb 51f 48f
2:38 18 22 mph 1003.5mb 51f 48f
2:23 18 22 mph 1003.4mb - 49f
2:08 18 25 mph 1003.3mb 51f 49f
1:53 20 25 mph 1003.3mb 51f 49f
1:38 20 27 mph 1003.2mb 51f 49f
1:23 20 25 mph 1003.2mb 51f 49f
1:08 18 22 mph 1003.1mb 51f 49f
12:53 18 25 mph 1003.1mb 51f 49f
12:38 16 22 mph 1003.2mb 51f 49f
12:23 16 20 mph 1003.3mb 51f 49f
12:08 18 22 mph 1003.3mb 51f 49f
lun. 02/08 11:53 16 22 mph 1003.7mb 52f 49f
11:38 16 22 mph 1003.9mb 52f 49f
11:23 13 18 mph 1004.1mb 52f 49f
11:08 16 18 mph 1004.3mb 52f 49f
10:08 9 13 mph 1005.4mb 52f 48f
9:53 9 13 mph 1005.3mb 52f 48f
9:08 20 29 mph 1006.3mb 52f 48f
8:53 22 31 mph 1006.4mb 52f 49f
8:38 25 34 mph 1006.6mb 52f 50f
8:23 27 36 mph 1006.4mb 52f 51f
8:08 22 29 mph 1005.3mb 52f 54f
7:53 22 31 mph 1005.4mb 52f 54f
7:38 22 31 mph 1005.4mb 52f 54f
7:23 20 29 mph 1005.5mb 52f 54f
7:08 20 29 mph 1005.2mb 52f 54f
6:53 22 27 mph 1005.3mb 52f 54f
6:38 20 27 mph 1005.3mb 52f 54f
6:23 20 27 mph 1005.4mb 52f 54f
5:08 18 25 mph 1005.6mb 52f 53f
4:53 18 25 mph 1005.7mb 52f 54f
4:38 18 25 mph 1005.7mb 52f 54f
4:23 16 20 mph 1006mb 52f 53f
4:08 16 20 mph 1006.4mb 52f 52f
3:53 13 18 mph 1006.7mb 52f 52f
3:08 13 18 mph 1007.2mb 52f 50f
2:53 11 16 mph 1007.7mb 52f 50f
2:38 11 16 mph 1007.9mb 52f 50f
2:23 11 16 mph 1008mb 52f 49f
2:08 13 18 mph 1008.3mb 52f 49f
1:53 13 16 mph 1008.5mb 52f 49f
1:38 13 18 mph 1008.7mb 52f 49f
1:23 13 18 mph 1009mb 52f 48f
1:08 13 18 mph 1009mb 52f 48f
12:53 13 16 mph 1009.4mb 52f 48f
12:38 11 13 mph 1009.5mb 52f 47f
12:23 9 11 mph 1009.8mb 52f 47f
12:08 9 11 mph 1010.3mb 52f 47f
11:53 7 9 mph 1010.5mb 52f 47f
11:38 4 9 mph 1010.7mb 52f 47f
11:23 4 7 mph 1011mb 52f 47f
11:08 2 4 mph 1011.3mb 52f 47f
10:53 2 4 mph 1011.4mb 52f 48f
10:38 2 4 mph 1011.6mb 52f 47f
10:23 2 4 mph 1011.8mb 52f 47f
10:08 4 9 mph 1011.8mb 52f 46f
9:53 7 11 mph 1012mb 52f 45f
9:38 7 11 mph 1011.8mb 52f 45f
9:23 7 11 mph 1011.6mb 52f 44f
9:08 9 11 mph 1011.7mb 52f 44f
8:53 9 11 mph 1012mb 52f 43f
8:38 9 13 mph 1011.8mb 52f 43f
8:23 11 13 mph 1011.9mb 52f 43f
8:08 11 18 mph 1011.8mb 52f 43f
7:53 13 18 mph 1011.9mb 52f 43f
7:38 13 20 mph 1011.5mb 52f 43f
7:23 16 22 mph 1011.4mb 52f 43f
7:08 16 22 mph 1011.4mb 52f 43f
6:53 16 22 mph 1011mb 52f 43f
6:38 18 22 mph 1011.1mb 52f 43f
6:23 18 22 mph 1011.1mb 52f 43f
6:08 16 22 mph 1011mb 52f 42f
5:53 20 27 mph 1011.1mb 52f 42f
5:38 18 27 mph 1010.7mb 52f 42f
5:23 18 27 mph 1010.7mb 52f 42f
5:08 18 27 mph 1010.6mb 52f 43f
4:53 20 27 mph 1010.1mb 52f 44f
4:38 18 27 mph 1009.7mb 52f 43f
4:23 20 27 mph 1009.8mb 52f 44f
4:08 20 31 mph 1009.6mb 52f 44f